Time;durP1;ratioP1;P1;durP2;ratioP2;P2;SDS_P1;SDS_P2;PMS_P1;PMS_P2;Temp;Humidity;BMP_temperature;BMP_pressure;BME280_temperature;BME280_humidity;BME280_pressure;Samples;Min_cycle;Max_cycle;Signal;HPM_P1;HPM_P2
2021/08/21 00:00:40;;;;;;;8.27;7.47;;;15.40;99.90;;;;;;5001241;28;20183;-83
2021/08/21 00:03:09;;;;;;;9.20;7.03;;;15.40;99.90;;;;;;4985820;28;20190;-83
2021/08/21 00:05:35;;;;;;;7.93;7.13;;;15.40;99.90;;;;;;5003004;28;20177;-83
2021/08/21 00:08:01;;;;;;;9.23;7.70;;;15.30;99.90;;;;;;4988023;28;20207;-84
2021/08/21 00:10:28;;;;;;;8.63;7.57;;;15.30;99.90;;;;;;4987635;28;20549;-83
2021/08/21 00:12:54;;;;;;;7.90;7.10;;;15.30;99.90;;;;;;4988398;28;20181;-83
2021/08/21 00:15:20;;;;;;;8.03;7.20;;;15.30;99.90;;;;;;4988493;28;20541;-84
2021/08/21 00:17:46;;;;;;;8.50;7.50;;;15.20;99.90;;;;;;5019971;23;20261;-78
2021/08/21 00:20:12;;;;;;;8.27;7.33;;;15.30;99.90;;;;;;5017485;28;20206;-78
2021/08/21 00:22:37;;;;;;;8.93;7.93;;;15.20;99.90;;;;;;5017860;28;20547;-78
2021/08/21 00:25:04;;;;;;;8.50;7.57;;;15.20;99.90;;;;;;5016052;28;20210;-76
2021/08/21 00:27:29;;;;;;;9.97;7.57;;;15.20;99.90;;;;;;4995791;28;20570;-76
2021/08/21 00:29:55;;;;;;;8.67;7.67;;;15.20;99.90;;;;;;5012285;28;20180;-76
2021/08/21 00:32:20;;;;;;;7.87;6.60;;;15.20;99.90;;;;;;4996082;28;20176;-76
2021/08/21 00:34:46;;;;;;;8.33;7.43;;;15.10;99.90;;;;;;5012338;28;20187;-76
2021/08/21 00:37:11;;;;;;;8.57;7.67;;;15.10;99.90;;;;;;5012237;28;20197;-76
2021/08/21 00:39:37;;;;;;;8.27;7.47;;;15.10;99.90;;;;;;4995454;28;20218;-76
2021/08/21 00:42:04;;;;;;;9.63;7.40;;;15.10;99.90;;;;;;5012226;28;20176;-77
2021/08/21 00:44:30;;;;;;;9.10;7.70;;;15.00;99.90;;;;;;4995706;28;20239;-76
2021/08/21 00:47:09;;;;;;;9.53;7.80;;;15.00;99.90;;;;;;4995642;28;20195;-76
2021/08/21 00:49:36;;;;;;;8.37;7.57;;;15.00;99.90;;;;;;5011828;28;20168;-76
2021/08/21 00:52:03;;;;;;;8.27;7.47;;;15.00;99.90;;;;;;4995579;28;20180;-76
2021/08/21 00:54:29;;;;;;;11.07;7.17;;;15.00;99.90;;;;;;5011923;28;20184;-76
2021/08/21 00:56:56;;;;;;;9.70;7.43;;;14.90;99.90;;;;;;5011926;28;20278;-76
2021/08/21 00:59:21;;;;;;;9.83;7.37;;;14.90;99.90;;;;;;4995233;28;20180;-76
2021/08/21 01:01:48;;;;;;;9.23;7.17;;;14.90;99.90;;;;;;5011896;28;20717;-76
2021/08/21 01:04:13;;;;;;;8.27;7.47;;;14.90;99.90;;;;;;5011903;28;20577;-76
2021/08/21 01:06:39;;;;;;;8.03;7.23;;;14.80;99.90;;;;;;4995814;28;20183;-76
2021/08/21 01:09:04;;;;;;;7.90;7.10;;;14.90;99.90;;;;;;4995285;28;20610;-76
2021/08/21 01:11:30;;;;;;;7.63;6.77;;;14.90;99.90;;;;;;4995610;28;20277;-76
2021/08/21 01:13:56;;;;;;;7.30;6.60;;;14.80;99.90;;;;;;5013921;28;20179;-76
2021/08/21 01:16:22;;;;;;;8.20;7.30;;;14.80;99.90;;;;;;5011752;28;20257;-76
2021/08/21 01:18:48;;;;;;;8.07;7.03;;;14.90;99.90;;;;;;5010562;28;20214;-76
2021/08/21 01:21:13;;;;;;;7.90;7.10;;;14.80;99.90;;;;;;4995202;28;20187;-76
2021/08/21 01:23:39;;;;;;;8.50;7.60;;;14.80;99.90;;;;;;4995160;28;20199;-76
2021/08/21 01:26:04;;;;;;;8.40;7.30;;;14.80;99.90;;;;;;5011622;28;20183;-76
2021/08/21 01:28:30;;;;;;;10.67;7.63;;;14.70;99.90;;;;;;4995106;28;20286;-76
2021/08/21 01:30:55;;;;;;;8.63;7.73;;;14.70;99.90;;;;;;4994726;28;20210;-76
2021/08/21 01:33:21;;;;;;;8.50;7.60;;;14.70;99.90;;;;;;4995254;28;20238;-76
2021/08/21 01:35:51;;;;;;;9.60;7.30;;;14.70;99.90;;;;;;5011621;28;20176;-76
2021/08/21 01:38:16;;;;;;;8.10;7.30;;;14.60;99.90;;;;;;5011387;28;20195;-76
2021/08/21 01:40:42;;;;;;;8.60;7.70;;;14.60;99.90;;;;;;4994487;28;20237;-76
2021/08/21 01:43:07;;;;;;;9.13;7.40;;;14.60;99.90;;;;;;4995074;28;20179;-76
2021/08/21 01:45:33;;;;;;;8.97;7.37;;;14.60;99.90;;;;;;5011338;28;20245;-76
2021/08/21 01:47:59;;;;;;;9.67;7.73;;;14.60;99.90;;;;;;5011081;28;20207;-76
2021/08/21 01:50:24;;;;;;;9.00;8.10;;;14.50;99.90;;;;;;4994570;28;20289;-76
2021/08/21 01:52:53;;;;;;;10.37;7.90;;;14.50;99.90;;;;;;4994614;28;20211;-76
2021/08/21 01:55:18;;;;;;;9.10;7.70;;;14.50;99.90;;;;;;5011199;28;20183;-76
2021/08/21 01:57:45;;;;;;;8.23;7.10;;;14.60;99.90;;;;;;5011149;28;20202;-76
2021/08/21 02:00:11;;;;;;;9.63;7.17;;;14.50;99.90;;;;;;5011282;28;20183;-76
2021/08/21 02:02:37;;;;;;;8.63;7.73;;;14.50;99.90;;;;;;5010988;28;20560;-76
2021/08/21 02:05:04;;;;;;;8.73;7.83;;;14.40;99.90;;;;;;5011174;28;20677;-76
2021/08/21 02:07:30;;;;;;;9.07;8.17;;;14.40;99.90;;;;;;5011159;28;20202;-76
2021/08/21 02:09:56;;;;;;;9.13;8.10;;;14.40;99.90;;;;;;5011085;28;20650;-76
2021/08/21 02:12:22;;;;;;;9.27;8.23;;;14.40;99.90;;;;;;4994804;28;20186;-76
2021/08/21 02:14:47;;;;;;;9.97;8.87;;;14.40;99.90;;;;;;4994507;28;20249;-76
2021/08/21 02:17:13;;;;;;;11.57;9.27;;;14.40;99.90;;;;;;5010665;28;20223;-76
2021/08/21 02:19:38;;;;;;;9.50;8.50;;;14.40;99.90;;;;;;5010824;28;20184;-76
2021/08/21 02:22:04;;;;;;;12.03;7.93;;;14.40;99.90;;;;;;5010967;28;20254;-76
2021/08/21 02:24:30;;;;;;;10.20;8.50;;;14.30;99.90;;;;;;4994355;28;20211;-76
2021/08/21 02:26:58;;;;;;;10.10;8.90;;;14.40;99.90;;;;;;5010985;28;20199;-76
2021/08/21 02:29:24;;;;;;;9.57;8.57;;;14.30;99.90;;;;;;5013203;28;20183;-76
2021/08/21 02:31:49;;;;;;;11.87;8.57;;;14.30;99.90;;;;;;5014619;28;20175;-76
2021/08/21 02:34:15;;;;;;;13.23;9.00;;;14.30;99.90;;;;;;5014564;28;20180;-76
2021/08/21 02:36:41;;;;;;;10.23;9.23;;;14.20;99.90;;;;;;5014620;28;20183;-76
2021/08/21 02:39:07;;;;;;;10.57;8.70;;;14.20;99.90;;;;;;5014512;28;20278;-76
2021/08/21 02:41:32;;;;;;;10.43;9.07;;;14.20;99.90;;;;;;4998323;28;20211;-76
2021/08/21 02:43:58;;;;;;;12.10;9.47;;;14.30;99.90;;;;;;4997261;28;20203;-76
2021/08/21 02:46:23;;;;;;;11.03;9.10;;;14.20;99.90;;;;;;5014543;28;20190;-76
2021/08/21 02:48:49;;;;;;;9.77;8.77;;;14.30;99.90;;;;;;4997692;28;20713;-76
2021/08/21 02:51:15;;;;;;;11.13;9.10;;;14.20;99.90;;;;;;4997769;28;20188;-76
2021/08/21 02:53:40;;;;;;;9.83;8.40;;;14.20;99.90;;;;;;5014426;28;20207;-76
2021/08/21 02:56:06;;;;;;;9.97;8.97;;;14.20;99.90;;;;;;5014338;28;20318;-76
2021/08/21 02:58:31;;;;;;;10.03;9.00;;;14.10;99.90;;;;;;5014120;28;20192;-76
2021/08/21 03:00:57;;;;;;;10.30;8.70;;;14.10;99.90;;;;;;5013964;28;20251;-76
2021/08/21 03:03:22;;;;;;;10.93;8.57;;;14.10;99.90;;;;;;4997612;28;20312;-76
2021/08/21 03:05:48;;;;;;;10.93;8.37;;;14.10;99.90;;;;;;5014212;28;20182;-76
2021/08/21 03:08:13;;;;;;;10.63;8.20;;;14.00;99.90;;;;;;5014071;28;20192;-76
2021/08/21 03:10:39;;;;;;;11.50;8.83;;;14.10;99.90;;;;;;5013969;28;20175;-76
2021/08/21 03:13:05;;;;;;;10.00;8.93;;;14.00;99.90;;;;;;5013915;28;20686;-76
2021/08/21 03:15:30;;;;;;;9.27;8.27;;;14.00;99.90;;;;;;5013962;28;20576;-76
2021/08/21 03:17:56;;;;;;;12.73;9.30;;;14.00;99.90;;;;;;5013888;28;20295;-76
2021/08/21 03:20:22;;;;;;;11.17;8.90;;;14.00;99.90;;;;;;5013679;28;20225;-76
2021/08/21 03:22:48;;;;;;;11.33;9.17;;;14.00;99.90;;;;;;4997553;28;20176;-76
2021/08/21 03:25:13;;;;;;;10.93;9.50;;;14.10;99.90;;;;;;5013553;28;20721;-76
2021/08/21 03:27:39;;;;;;;11.33;9.37;;;14.00;99.90;;;;;;5013682;28;20737;-76
2021/08/21 03:30:05;;;;;;;12.30;9.67;;;14.00;99.90;;;;;;5013515;28;20682;-76
2021/08/21 03:32:31;;;;;;;12.47;8.90;;;14.00;99.90;;;;;;5013612;28;20175;-76
2021/08/21 03:34:56;;;;;;;10.73;9.00;;;14.00;99.90;;;;;;4997503;28;20180;-76
2021/08/21 03:37:22;;;;;;;12.17;9.40;;;13.90;99.90;;;;;;5013372;28;20562;-76
2021/08/21 03:39:48;;;;;;;10.50;8.80;;;13.90;99.90;;;;;;4996090;28;20190;-76
2021/08/21 03:42:13;;;;;;;9.80;8.70;;;13.90;99.90;;;;;;5014601;28;20179;-76
2021/08/21 03:44:39;;;;;;;12.30;9.77;;;13.80;99.90;;;;;;4996872;28;20409;-76
2021/08/21 03:47:05;;;;;;;11.50;9.53;;;13.90;99.90;;;;;;4996786;28;20192;-76
2021/08/21 03:49:30;;;;;;;11.53;9.77;;;13.80;99.90;;;;;;5013267;28;20522;-76
2021/08/21 03:51:56;;;;;;;11.73;9.63;;;13.90;99.90;;;;;;5013338;28;20175;-76
2021/08/21 03:54:21;;;;;;;11.93;9.47;;;13.80;99.90;;;;;;5013469;28;20258;-76
2021/08/21 03:56:47;;;;;;;11.60;9.37;;;13.80;99.90;;;;;;5014410;28;20338;-76
2021/08/21 03:59:13;;;;;;;11.93;10.07;;;13.80;99.90;;;;;;5013887;28;20222;-76
2021/08/21 04:01:38;;;;;;;10.23;9.13;;;13.80;99.90;;;;;;5013281;28;20180;-76
2021/08/21 04:04:04;;;;;;;12.97;9.60;;;13.80;99.90;;;;;;4997188;28;20207;-76
2021/08/21 04:06:29;;;;;;;11.80;9.80;;;13.80;99.90;;;;;;5013321;28;20406;-76
2021/08/21 04:08:55;;;;;;;10.73;9.23;;;13.80;99.90;;;;;;5014209;28;20168;-76
2021/08/21 04:11:20;;;;;;;11.77;9.57;;;13.80;99.90;;;;;;4996804;28;20171;-76
2021/08/21 04:13:46;;;;;;;12.57;9.17;;;13.70;99.90;;;;;;5012796;28;20579;-76
2021/08/21 04:16:11;;;;;;;9.73;8.70;;;13.70;99.90;;;;;;5013237;28;20203;-76
2021/08/21 04:18:37;;;;;;;11.90;9.60;;;13.70;99.90;;;;;;5012634;28;20215;-76
2021/08/21 04:21:03;;;;;;;10.50;9.00;;;13.70;99.90;;;;;;4996561;28;20176;-76
2021/08/21 04:23:28;;;;;;;10.93;9.07;;;13.70;99.90;;;;;;5013257;28;20203;-76
2021/08/21 04:25:59;;;;;;;10.27;9.10;;;13.70;99.90;;;;;;4996622;28;20182;-76
2021/08/21 04:28:25;;;;;;;10.20;8.67;;;13.70;99.90;;;;;;5012636;28;20192;-76
2021/08/21 04:30:51;;;;;;;10.20;8.23;;;13.60;99.90;;;;;;5012270;28;20233;-76
2021/08/21 04:33:17;;;;;;;12.03;9.07;;;13.70;99.90;;;;;;5012824;28;20179;-76
2021/08/21 04:35:42;;;;;;;10.33;8.47;;;13.60;99.90;;;;;;5012567;28;20222;-76
2021/08/21 04:38:08;;;;;;;11.57;8.67;;;13.60;99.90;;;;;;5012420;28;20262;-76
2021/08/21 04:40:33;;;;;;;14.13;10.03;;;13.60;99.90;;;;;;5013309;28;20183;-76
2021/08/21 04:42:59;;;;;;;11.97;9.83;;;13.60;99.90;;;;;;4996119;28;20190;-76
2021/08/21 04:45:25;;;;;;;11.40;9.50;;;13.70;99.90;;;;;;4996054;28;20203;-76
2021/08/21 04:47:50;;;;;;;12.80;10.07;;;13.70;99.90;;;;;;5012182;28;20282;-76
2021/08/21 04:50:16;;;;;;;12.87;9.80;;;13.80;99.90;;;;;;4995777;28;20176;-76
2021/08/21 04:52:41;;;;;;;12.73;10.03;;;13.80;99.90;;;;;;4995434;28;20183;-76
2021/08/21 04:55:07;;;;;;;12.33;10.57;;;13.80;99.90;;;;;;5012430;28;20249;-76
2021/08/21 04:57:33;;;;;;;14.37;10.93;;;13.80;99.90;;;;;;5011824;28;20231;-76
2021/08/21 04:59:58;;;;;;;12.87;10.17;;;13.90;99.90;;;;;;5013208;28;20623;-76
2021/08/21 05:02:24;;;;;;;11.90;9.87;;;14.00;99.90;;;;;;5012211;28;20214;-76
2021/08/21 05:04:50;;;;;;;12.00;10.07;;;14.00;99.90;;;;;;5011891;28;20782;-76
2021/08/21 05:07:15;;;;;;;14.70;10.33;;;14.00;99.90;;;;;;5012154;28;20211;-76
2021/08/21 05:09:41;;;;;;;12.73;10.33;;;14.10;99.90;;;;;;5012076;28;20242;-76
2021/08/21 05:12:06;;;;;;;13.17;10.50;;;14.20;99.90;;;;;;4995534;28;20180;-76
2021/08/21 05:14:32;;;;;;;12.07;9.87;;;14.20;99.90;;;;;;5011848;28;20194;-76
2021/08/21 05:16:58;;;;;;;13.57;10.07;;;14.30;99.90;;;;;;5011364;28;20294;-76
2021/08/21 05:19:31;;;;;;;12.53;10.40;;;14.30;99.90;;;;;;5011690;28;20243;-76
2021/08/21 05:21:58;;;;;;;13.60;11.27;;;14.40;99.90;;;;;;5011789;28;20182;-76
2021/08/21 05:24:24;;;;;;;13.53;10.60;;;14.50;99.90;;;;;;5011692;28;20663;-76
2021/08/21 05:26:50;;;;;;;13.67;10.90;;;14.60;99.90;;;;;;4995080;28;20206;-76
2021/08/21 05:29:15;;;;;;;13.70;11.43;;;14.70;99.90;;;;;;4994912;28;20510;-76
2021/08/21 05:31:41;;;;;;;14.00;11.23;;;14.80;99.90;;;;;;4995248;28;20180;-76
2021/08/21 05:34:12;;;;;;;15.63;10.70;;;14.90;99.90;;;;;;5011612;28;20183;-76
2021/08/21 05:36:38;;;;;;;15.97;11.17;;;15.10;99.90;;;;;;5011669;28;20233;-76
2021/08/21 05:39:05;;;;;;;15.03;11.63;;;15.10;99.90;;;;;;5010903;28;20183;-76
2021/08/21 05:41:30;;;;;;;15.43;12.13;;;15.20;99.90;;;;;;5011901;28;20187;-76
2021/08/21 05:43:56;;;;;;;14.17;11.67;;;15.20;99.90;;;;;;5013259;28;20215;-78
2021/08/21 05:46:22;;;;;;;15.13;12.10;;;15.30;99.90;;;;;;5013763;28;20200;-76
2021/08/21 05:48:47;;;;;;;17.30;13.00;;;15.40;99.90;;;;;;5010984;28;20201;-76
2021/08/21 05:51:13;;;;;;;14.33;12.13;;;15.50;99.90;;;;;;5011114;28;20171;-76
2021/08/21 05:53:38;;;;;;;14.07;11.63;;;15.50;99.90;;;;;;4994997;28;20187;-76
2021/08/21 05:56:04;;;;;;;17.13;12.00;;;15.60;99.90;;;;;;5011300;28;20241;-76
2021/08/21 05:58:29;;;;;;;14.50;11.27;;;15.60;99.90;;;;;;5011625;28;20199;-76
2021/08/21 06:00:55;;;;;;;15.03;12.13;;;15.70;99.90;;;;;;5011293;28;20262;-76
2021/08/21 06:03:20;;;;;;;14.43;12.40;;;15.70;99.90;;;;;;4995622;28;20184;-76
2021/08/21 06:05:46;;;;;;;14.83;12.60;;;15.80;99.90;;;;;;5015611;28;20186;-77
2021/08/21 06:08:11;;;;;;;16.83;12.83;;;15.80;99.90;;;;;;5015211;28;20192;-77
2021/08/21 06:10:39;;;;;;;17.03;12.80;;;15.90;99.90;;;;;;5015110;28;20563;-77
2021/08/21 06:13:04;;;;;;;16.17;13.33;;;15.90;99.90;;;;;;5015717;28;20635;-76
2021/08/21 06:15:30;;;;;;;15.70;12.00;;;16.00;99.90;;;;;;5015684;28;20196;-76
2021/08/21 06:17:55;;;;;;;13.40;11.20;;;16.00;99.90;;;;;;5015676;28;20230;-77
2021/08/21 06:20:21;;;;;;;17.00;13.00;;;16.10;99.90;;;;;;5015675;28;20621;-77
2021/08/21 06:22:46;;;;;;;14.90;12.17;;;16.20;99.90;;;;;;5015720;28;20587;-77
2021/08/21 06:25:12;;;;;;;16.13;12.67;;;16.30;99.90;;;;;;5015511;28;20218;-77
2021/08/21 06:27:38;;;;;;;15.07;12.10;;;16.50;99.90;;;;;;5015344;28;20226;-77
2021/08/21 06:30:04;;;;;;;15.77;12.23;;;16.80;99.90;;;;;;5015204;28;20218;-77
2021/08/21 06:32:30;;;;;;;16.30;11.77;;;17.30;99.90;;;;;;5015557;28;20238;-77
2021/08/21 06:34:55;;;;;;;14.33;11.60;;;17.70;99.90;;;;;;5015302;28;20590;-77
2021/08/21 06:37:21;;;;;;;13.93;11.97;;;18.00;99.90;;;;;;5015413;28;20254;-77
2021/08/21 06:39:46;;;;;;;16.20;12.10;;;18.30;99.90;;;;;;5015829;28;20186;-77
2021/08/21 06:42:12;;;;;;;15.20;12.03;;;18.40;99.90;;;;;;5015501;28;20176;-77
2021/08/21 06:44:37;;;;;;;15.00;12.83;;;18.40;99.90;;;;;;5015165;28;20199;-77
2021/08/21 06:47:03;;;;;;;14.60;12.30;;;18.20;99.90;;;;;;5015307;28;20191;-77
2021/08/21 06:49:29;;;;;;;16.73;12.77;;;18.20;99.90;;;;;;5016127;28;20186;-77
2021/08/21 06:51:54;;;;;;;17.10;12.43;;;18.20;99.90;;;;;;5015141;28;20199;-77
2021/08/21 06:54:20;;;;;;;15.20;11.73;;;18.10;99.90;;;;;;4998842;28;20274;-76
2021/08/21 06:56:45;;;;;;;14.37;12.00;;;18.10;99.90;;;;;;5015296;28;20178;-77
2021/08/21 06:59:11;;;;;;;16.60;12.13;;;18.10;99.90;;;;;;4998626;28;20183;-77
2021/08/21 07:01:37;;;;;;;14.50;12.47;;;18.10;99.90;;;;;;5015915;28;20191;-77
2021/08/21 07:04:03;;;;;;;17.40;13.43;;;18.20;99.90;;;;;;5015976;28;20545;-77
2021/08/21 07:06:28;;;;;;;16.73;13.00;;;18.20;99.90;;;;;;5014675;28;20311;-77
2021/08/21 07:08:54;;;;;;;19.57;13.43;;;18.20;99.90;;;;;;5014497;28;20182;-77
2021/08/21 07:11:19;;;;;;;15.40;13.10;;;18.20;99.90;;;;;;5014511;28;20529;-77
2021/08/21 07:13:45;;;;;;;17.20;13.37;;;18.30;99.90;;;;;;5014679;28;20617;-77
2021/08/21 07:16:11;;;;;;;16.90;13.17;;;18.30;99.90;;;;;;5014493;28;20178;-77
2021/08/21 07:18:37;;;;;;;18.07;14.27;;;18.20;99.90;;;;;;5014071;28;20290;-77
2021/08/21 07:21:03;;;;;;;17.33;13.77;;;18.30;99.90;;;;;;4998548;28;20631;-77
2021/08/21 07:23:28;;;;;;;19.47;14.37;;;18.40;99.90;;;;;;5013799;28;20618;-77
2021/08/21 07:25:54;;;;;;;16.80;13.60;;;18.60;99.90;;;;;;4998248;28;20275;-77
2021/08/21 07:28:19;;;;;;;18.60;13.50;;;18.70;99.90;;;;;;5013991;28;20203;-77
2021/08/21 07:30:45;;;;;;;21.43;13.53;;;18.80;99.90;;;;;;5014080;28;20175;-77
2021/08/21 07:33:10;;;;;;;14.90;12.57;;;19.00;99.90;;;;;;5014193;28;20179;-77
2021/08/21 07:35:36;;;;;;;16.70;12.77;;;19.10;99.90;;;;;;4997940;28;20187;-77
2021/08/21 07:38:02;;;;;;;17.93;13.13;;;19.20;99.90;;;;;;4997055;28;20191;-77
2021/08/21 07:40:27;;;;;;;16.20;13.73;;;19.20;99.90;;;;;;5013821;28;20179;-77
2021/08/21 07:42:53;;;;;;;17.23;13.60;;;19.10;99.90;;;;;;5014080;28;20294;-77
2021/08/21 07:45:18;;;;;;;17.87;13.97;;;19.00;99.90;;;;;;4997477;28;20806;-77
2021/08/21 07:47:49;;;;;;;19.40;15.13;;;19.00;99.90;;;;;;5013909;28;20215;-77
2021/08/21 07:50:14;;;;;;;16.17;13.67;;;19.00;99.90;;;;;;5013311;28;20532;-77
2021/08/21 07:52:43;;;;;;;18.73;15.07;;;19.10;99.90;;;;;;5013467;28;20178;-77
2021/08/21 07:55:09;;;;;;;17.40;14.20;;;19.20;99.90;;;;;;5013583;28;20254;-77
2021/08/21 07:57:35;;;;;;;16.93;13.80;;;19.20;99.90;;;;;;5013681;28;20204;-77
2021/08/21 08:00:00;;;;;;;18.87;14.53;;;19.10;99.90;;;;;;5013332;28;20207;-77
2021/08/21 08:02:26;;;;;;;18.90;14.77;;;19.20;99.90;;;;;;5013557;28;20183;-77
2021/08/21 08:04:51;;;;;;;18.43;13.90;;;19.20;99.90;;;;;;5013084;28;20246;-77
2021/08/21 08:07:17;;;;;;;21.67;15.50;;;19.30;99.90;;;;;;5013223;28;20199;-77
2021/08/21 08:09:42;;;;;;;19.37;14.77;;;19.40;99.90;;;;;;5013362;28;20172;-77
2021/08/21 08:12:08;;;;;;;16.90;14.20;;;19.40;99.90;;;;;;5013620;28;20195;-77
2021/08/21 08:14:33;;;;;;;18.87;15.03;;;19.40;99.90;;;;;;4996639;28;20245;-77
2021/08/21 08:16:59;;;;;;;18.37;13.83;;;19.40;99.90;;;;;;5012559;28;20235;-77
2021/08/21 08:19:24;;;;;;;17.93;14.17;;;19.50;99.90;;;;;;4996514;28;20594;-77
2021/08/21 08:21:50;;;;;;;20.37;13.80;;;19.50;99.90;;;;;;5013339;28;20600;-77
2021/08/21 08:24:19;;;;;;;18.33;13.60;;;19.60;99.90;;;;;;5013205;28;20627;-77
2021/08/21 08:26:44;;;;;;;18.37;14.13;;;19.50;99.90;;;;;;5012587;28;20516;-77
2021/08/21 08:29:10;;;;;;;18.13;14.00;;;19.60;99.90;;;;;;5012478;28;20186;-77
2021/08/21 08:31:35;;;;;;;18.90;14.17;;;19.60;99.90;;;;;;5013285;28;20639;-77
2021/08/21 08:34:01;;;;;;;17.30;13.77;;;19.70;99.90;;;;;;4996274;28;20175;-77
2021/08/21 08:36:27;;;;;;;16.90;14.07;;;19.80;99.90;;;;;;5012610;28;20187;-77
2021/08/21 08:38:52;;;;;;;17.33;13.13;;;20.00;99.90;;;;;;4996176;28;20566;-76
2021/08/21 08:41:20;;;;;;;19.10;14.07;;;19.90;99.90;;;;;;4996249;28;20187;-77
2021/08/21 08:43:46;;;;;;;16.47;12.87;;;19.90;99.90;;;;;;5012938;28;20207;-77
2021/08/21 08:46:11;;;;;;;16.40;13.53;;;20.00;99.90;;;;;;5012855;28;20532;-77
2021/08/21 08:48:37;;;;;;;19.00;14.30;;;20.10;99.90;;;;;;5012417;28;20637;-76
2021/08/21 08:51:02;;;;;;;17.37;13.97;;;20.20;99.90;;;;;;5012349;28;20176;-76
2021/08/21 08:53:28;;;;;;;20.97;14.30;;;20.20;99.90;;;;;;5012521;28;20271;-77
2021/08/21 08:55:53;;;;;;;17.33;14.47;;;20.30;99.90;;;;;;5012531;28;20183;-77
2021/08/21 08:58:19;;;;;;;16.13;12.77;;;20.20;99.90;;;;;;4995790;28;20214;-77
2021/08/21 09:00:45;;;;;;;17.37;13.40;;;20.20;99.90;;;;;;5012330;28;20183;-77
2021/08/21 09:03:19;;;;;;;17.07;13.97;;;20.40;99.90;;;;;;5012465;28;20588;-76
2021/08/21 09:05:44;;;;;;;18.57;13.93;;;20.50;99.90;;;;;;5012462;28;20183;-77
2021/08/21 09:08:29;;;;;;;18.90;13.60;;;20.60;99.90;;;;;;5011799;28;20199;-77
2021/08/21 09:10:55;;;;;;;14.27;12.43;;;20.60;99.90;;;;;;5011914;28;20179;-77
2021/08/21 09:13:22;;;;;;;17.23;12.30;;;20.80;99.90;;;;;;5011919;28;20603;-76
2021/08/21 09:15:49;;;;;;;18.00;13.83;;;21.00;99.90;;;;;;5011758;28;20251;-76
2021/08/21 09:18:21;;;;;;;17.93;13.87;;;21.20;99.90;;;;;;5012364;28;20221;-77
2021/08/21 09:20:52;;;;;;;15.10;12.10;;;21.30;99.90;;;;;;5013125;28;20182;-77
2021/08/21 09:23:27;;;;;;;19.17;13.20;;;21.30;99.90;;;;;;5013900;28;20223;-76
2021/08/21 09:26:04;;;;;;;17.13;13.30;;;21.40;99.90;;;;;;4997008;28;20197;-77
2021/08/21 09:28:29;;;;;;;18.13;13.17;;;21.70;99.90;;;;;;4995372;28;20675;-77
2021/08/21 09:31:08;;;;;;;17.40;13.43;;;21.90;99.90;;;;;;4995610;28;20183;-77
2021/08/21 09:33:35;;;;;;;15.57;12.47;;;21.90;99.90;;;;;;5011505;28;20183;-76
2021/08/21 09:36:00;;;;;;;16.17;12.83;;;21.80;99.90;;;;;;5012325;28;20176;-77
2021/08/21 09:38:33;;;;;;;14.73;11.77;;;21.80;99.90;;;;;;5010909;28;20564;-77
2021/08/21 09:41:04;;;;;;;15.60;12.63;;;21.80;99.90;;;;;;4995336;28;20187;-77
2021/08/21 09:43:31;;;;;;;15.63;12.47;;;21.80;99.90;;;;;;5011871;28;20887;-77
2021/08/21 09:46:13;;;;;;;15.63;11.00;;;21.80;99.90;;;;;;4995514;28;20635;-77
2021/08/21 09:48:56;;;;;;;15.63;11.73;;;22.00;99.90;;;;;;5011738;28;20193;-76
2021/08/21 09:51:49;;;;;;;13.63;10.40;;;22.10;99.90;;;;;;5011996;28;20176;-77
2021/08/21 09:54:16;;;;;;;12.73;9.97;;;22.20;99.90;;;;;;5009381;28;20187;-77
2021/08/21 09:56:44;;;;;;;13.20;11.27;;;22.30;99.90;;;;;;5011728;28;20198;-77
2021/08/21 09:59:09;;;;;;;14.57;10.80;;;22.30;99.90;;;;;;5011705;28;20182;-77
2021/08/21 10:01:35;;;;;;;12.43;10.33;;;22.30;99.90;;;;;;5011669;28;20176;-77
2021/08/21 10:04:01;;;;;;;13.10;10.93;;;22.30;99.90;;;;;;5011912;28;20210;-77
2021/08/21 10:06:27;;;;;;;12.57;10.43;;;22.30;99.90;;;;;;4995485;28;20183;-77
2021/08/21 10:08:56;;;;;;;11.07;9.67;;;22.30;99.90;;;;;;5010796;28;20171;-77
2021/08/21 10:11:22;;;;;;;15.43;11.77;;;22.30;99.90;;;;;;5011437;28;20167;-77
2021/08/21 10:13:47;;;;;;;12.53;10.53;;;22.20;99.90;;;;;;5011467;28;20183;-77
2021/08/21 10:16:13;;;;;;;12.30;9.70;;;22.20;99.90;;;;;;4994972;28;20183;-77
2021/08/21 10:18:40;;;;;;;11.53;9.10;;;22.20;99.90;;;;;;5010841;28;20242;-75
2021/08/21 10:21:06;;;;;;;11.40;9.07;;;22.30;99.90;;;;;;4994809;28;20180;-77
2021/08/21 10:23:31;;;;;;;11.23;9.20;;;22.30;99.90;;;;;;5011346;28;20234;-77
2021/08/21 10:26:11;;;;;;;11.67;8.93;;;22.30;99.90;;;;;;5011394;28;20198;-77
2021/08/21 10:28:38;;;;;;;13.60;8.90;;;22.50;99.90;;;;;;5010828;28;20217;-75
2021/08/21 10:31:04;;;;;;;11.43;9.73;;;22.70;99.90;;;;;;4995090;28;20171;-77
2021/08/21 10:33:31;;;;;;;12.07;8.60;;;22.80;99.90;;;;;;5011175;28;20548;-77
2021/08/21 10:35:56;;;;;;;10.67;9.00;;;23.00;99.90;;;;;;5011381;28;20172;-77
2021/08/21 10:38:35;;;;;;;11.03;8.53;;;23.10;99.90;;;;;;5011127;28;20199;-77
2021/08/21 10:41:26;;;;;;;13.03;9.83;;;23.20;99.90;;;;;;5011024;28;20246;-77
2021/08/21 10:43:57;;;;;;;10.97;9.40;;;23.30;99.90;;;;;;5006436;28;20212;-77
2021/08/21 10:46:31;;;;;;;11.37;9.70;;;23.40;99.90;;;;;;4994977;28;20548;-77
2021/08/21 10:49:04;;;;;;;11.43;8.97;;;23.40;99.90;;;;;;5012000;28;20167;-77
2021/08/21 10:51:40;;;;;;;10.47;8.23;;;23.40;99.90;;;;;;5014677;28;20210;-77
2021/08/21 10:54:24;;;;;;;13.47;10.30;;;23.40;99.90;;;;;;4998923;28;20600;-77
2021/08/21 10:56:50;;;;;;;9.47;7.87;;;23.50;99.90;;;;;;5015394;28;20227;-77
2021/08/21 10:59:42;;;;;;;10.50;8.02;;;23.40;99.90;;;;;;4998303;28;20211;-77
2021/08/21 11:02:26;;;;;;;7.37;6.47;;;23.40;99.90;;;;;;5014605;28;20207;-77
2021/08/21 11:04:54;;;;;;;7.70;6.53;;;23.50;99.90;;;;;;5015374;28;20199;-77
2021/08/21 11:07:32;;;;;;;9.37;6.40;;;23.60;99.90;;;;;;4997831;28;20207;-77
2021/08/21 11:10:30;;;;;;;7.60;6.03;;;23.60;99.90;;;;;;5015191;28;20199;-77
2021/08/21 11:12:55;;;;;;;9.17;6.57;;;23.50;99.90;;;;;;5007699;28;20726;-77
2021/08/21 11:15:22;;;;;;;8.50;6.17;;;23.50;99.90;;;;;;5014343;28;20278;-77
2021/08/21 11:17:49;;;;;;;8.90;6.80;;;23.50;99.90;;;;;;5014009;28;20203;-77
2021/08/21 11:20:26;;;;;;;7.87;6.27;;;23.60;99.90;;;;;;5014110;28;20180;-77
2021/08/21 11:23:06;;;;;;;10.03;6.33;;;23.70;99.90;;;;;;5015487;28;20182;-77
2021/08/21 11:25:42;;;;;;;7.83;6.77;;;23.80;99.90;;;;;;5015327;28;20203;-77
2021/08/21 11:28:08;;;;;;;9.03;7.47;;;23.80;99.90;;;;;;5014115;28;20191;-77
2021/08/21 11:30:37;;;;;;;7.10;5.90;;;23.80;99.90;;;;;;4997668;28;20176;-77
2021/08/21 11:33:06;;;;;;;8.97;7.90;;;23.90;99.90;;;;;;5014579;28;20175;-77
2021/08/21 11:35:36;;;;;;;8.07;7.23;;;23.80;99.90;;;;;;5015342;28;20544;-77
2021/08/21 11:38:10;;;;;;;7.60;6.37;;;23.90;99.90;;;;;;5013960;28;20192;-77
2021/08/21 11:40:49;;;;;;;6.70;6.00;;;23.80;99.90;;;;;;5013949;28;20172;-77
2021/08/21 11:43:16;;;;;;;5.90;5.05;;;24.00;99.90;;;;;;5013708;28;20171;-77
2021/08/21 11:45:41;;;;;;;5.72;4.93;;;24.00;99.90;;;;;;5013869;28;20285;-77
2021/08/21 11:48:07;;;;;;;7.22;5.43;;;24.10;99.90;;;;;;5013986;28;20285;-77
2021/08/21 11:50:34;;;;;;;6.97;5.20;;;24.30;99.90;;;;;;5015009;28;20242;-77
2021/08/21 11:53:04;;;;;;;6.63;4.63;;;24.40;99.90;;;;;;4997425;28;20701;-77
2021/08/21 11:55:30;;;;;;;6.90;5.25;;;24.40;99.90;;;;;;4997036;28;20222;-77
2021/08/21 11:57:56;;;;;;;6.30;5.33;;;24.40;99.90;;;;;;4997421;28;20211;-77
2021/08/21 12:00:26;;;;;;;6.20;5.20;;;24.30;99.90;;;;;;5016370;28;20179;-77
2021/08/21 12:02:55;;;;;;;5.72;4.57;;;24.20;99.90;;;;;;4997569;28;20199;-77
2021/08/21 12:05:29;;;;;;;5.45;4.70;;;24.10;99.90;;;;;;5013774;28;20207;-77
2021/08/21 12:07:54;;;;;;;6.88;4.57;;;24.20;99.90;;;;;;4997275;28;20230;-77
2021/08/21 12:10:20;;;;;;;5.22;3.72;;;24.30;99.90;;;;;;5013240;28;20605;-77
2021/08/21 12:12:52;;;;;;;4.75;3.03;;;24.50;99.90;;;;;;5013898;28;20176;-77
2021/08/21 12:15:17;;;;;;;5.47;3.73;;;24.60;99.90;;;;;;5013908;28;20183;-77
2021/08/21 12:17:43;;;;;;;4.57;3.80;;;24.60;99.90;;;;;;4997561;28;20219;-77
2021/08/21 12:20:09;;;;;;;4.57;3.37;;;24.60;99.90;;;;;;5013077;28;20202;-77
2021/08/21 12:22:34;;;;;;;4.30;3.30;;;24.60;99.90;;;;;;5013657;28;20815;-77
2021/08/21 12:25:00;;;;;;;5.03;3.53;;;24.60;99.90;;;;;;4997052;28;20211;-77
2021/08/21 12:27:27;;;;;;;3.92;3.03;;;24.60;99.90;;;;;;5013628;28;20647;-77
2021/08/21 12:30:18;;;;;;;3.10;2.80;;;24.60;99.90;;;;;;4996804;28;20201;-77
2021/08/21 12:32:44;;;;;;;3.17;2.65;;;24.70;99.90;;;;;;5010415;28;20191;-77
2021/08/21 12:35:17;;;;;;;3.30;1.98;;;24.90;99.90;;;;;;4996568;28;20175;-78